Stations météo

réclame
Mon MeteoGroup
Malaga,Puerto, Espagne (8479): Température de l'air & dewpoint: 12.06.2018 13:00:00 - 18.06.2018 13:00:00 (CEST)Malaga,Puerto, Espagne (8479): Vitesse du vent & gusts: 12.06.2018 13:00:00 - 18.06.2018 13:00:00 (CEST)Malaga,Puerto, Espagne (8479): Direction du vent: 12.06.2018 13:00:00 - 18.06.2018 13:00:00 (CEST)Malaga,Puerto, Espagne (8479): reduced air pressure: 12.06.2018 13:00:00 - 18.06.2018 13:00:00 (CEST)Malaga,Puerto, Espagne (8479): Quantités de précipitations: 12.06.2018 13:00:00 - 18.06.2018 13:00:00 (CEST)
Date & Time tt [°C] td [°C] ff [km/h] ff [knt] fx [km/h] fx [knt] dd ppp [hPa] rr [mm]
18.06.2018 13:00:00 - - - - - - - - -
18.06.2018 12:00:00 26,8 9,6 6 4 12 6 SSE 1017,4 0,0
18.06.2018 11:00:00 27,6 10,3 3 2 14 8 SE 1017,0 0,0
18.06.2018 10:00:00 25,2 9,1 3 2 10 6 SE 1016,8 0,0
18.06.2018 09:00:00 25,6 9,8 1 1 11 6 NNW 1016,9 0,0
18.06.2018 08:00:00 22,9 9,3 4 2 11 6 NNW 1017,1 -
18.06.2018 07:00:00 21,9 9,1 5 3 14 8 NW 1017,6 0,0
18.06.2018 06:00:00 21,9 9,1 6 3 13 7 N 1017,7 0,0
18.06.2018 05:00:00 22,2 9,4 4 2 14 7 NW 1017,5 0,0
18.06.2018 04:00:00 22,1 9,3 8 5 17 9 NNW 1017,5 0,0
18.06.2018 03:00:00 22,7 10,2 4 2 12 6 N 1018,4 0,0
18.06.2018 02:00:00 22,4 11,5 2 1 7 4 NE 1018,6 -
18.06.2018 01:00:00 22,4 11,2 4 2 7 4 SSW 1018,4 0,0
18.06.2018 00:00:00 22,9 11,3 0 0 6 3 E 1018,2 0,0
17.06.2018 23:00:00 22,2 11,6 0 0 12 6 SSW 1018,6 0,0
17.06.2018 22:00:00 22,9 9,3 3 1 8 4 S 1018,1 0,0
17.06.2018 21:00:00 23,4 9,4 3 2 15 8 SE 1018,3 0,0
17.06.2018 20:00:00 24,6 9,4 9 5 14 8 S 1017,7 -
17.06.2018 19:00:00 25,8 8,8 6 4 10 5 SSE 1017,2 0,0
17.06.2018 18:00:00 25,5 11,7 5 3 13 7 SSE 1017,8 0,0
17.06.2018 17:00:00 24,8 12,4 9 5 16 9 S 1017,5 0,0
17.06.2018 16:00:00 24,1 13,0 9 5 16 9 SSE 1017,5 0,0
17.06.2018 15:00:00 23,6 12,9 6 3 17 9 SE 1017,5 0,0
17.06.2018 14:00:00 22,9 11,0 10 5 14 8 SE 1017,6 -
17.06.2018 13:00:00 24,4 9,9 6 3 14 8 SE 1017,2 0,0
17.06.2018 12:00:00 26,3 5,8 8 5 16 9 S 1016,7 0,0
17.06.2018 11:00:00 26,9 4,0 6 3 9 5 SSE 1016,2 0,0
17.06.2018 10:00:00 27,7 7,6 2 1 9 5 SSW 1015,8 0,0
17.06.2018 09:00:00 23,8 7,0 5 3 14 7 NNW 1015,6 0,0
17.06.2018 08:00:00 21,8 6,9 6 3 10 6 NNW 1015,6 -
17.06.2018 07:00:00 21,2 6,3 4 2 13 7 WNW 1015,9 0,0
17.06.2018 06:00:00 20,8 6,7 11 6 16 9 NW 1015,5 0,0
17.06.2018 05:00:00 20,8 6,4 10 5 17 9 NNW 1015,5 0,0
17.06.2018 04:00:00 21,3 5,7 8 4 13 7 NNW 1015,6 0,0
17.06.2018 03:00:00 21,8 6,1 3 1 8 4 NW 1015,5 0,0
17.06.2018 02:00:00 22,1 5,9 0 0 11 6 NW 1015,1 -
17.06.2018 01:00:00 22,6 6,0 1 1 7 4 N 1014,9 0,0
17.06.2018 00:00:00 22,0 7,8 1 1 4 2 ESE 1014,7 0,0
16.06.2018 23:00:00 22,5 6,7 0 0 4 2 N 1014,2 0,0
16.06.2018 22:00:00 22,9 6,2 0 0 5 3 NNE 1013,2 0,0
16.06.2018 21:00:00 24,1 5,5 2 1 6 4 ESE 1013,2 0,0
16.06.2018 20:00:00 25,2 9,1 1 1 7 4 SE 1013,0 -
16.06.2018 19:00:00 23,6 12,3 3 2 9 5 SSE 1013,1 0,0
16.06.2018 18:00:00 23,8 12,8 4 2 11 6 ESE 1013,2 0,0
16.06.2018 17:00:00 21,3 13,2 5 3 10 6 SE 1013,5 0,0
16.06.2018 16:00:00 21,4 14,1 6 3 11 6 ESE 1013,6 0,0
16.06.2018 15:00:00 21,7 13,1 5 3 9 5 SSE 1013,6 0,0
16.06.2018 14:00:00 18,9 13,7 5 3 10 6 SSE 1014,2 -
16.06.2018 13:00:00 17,1 14,2 7 4 13 7 SE 1014,5 0,0
16.06.2018 12:00:00 16,7 13,6 7 4 16 9 SSE 1014,5 0,0
16.06.2018 11:00:00 20,7 13,7 5 3 9 5 SSE 1013,2 0,0
16.06.2018 10:00:00 22,0 13,9 3 1 8 4 ESE 1012,7 0,0
16.06.2018 09:00:00 20,2 15,0 1 1 6 4 ESE 1012,5 0,0
16.06.2018 08:00:00 20,2 15,6 0 0 5 3 E 1012,6 -
16.06.2018 07:00:00 17,9 15,7 2 1 6 4 W 1012,9 0,0
16.06.2018 06:00:00 17,3 15,6 1 1 7 4 E 1012,7 0,0
16.06.2018 05:00:00 16,9 15,3 0 0 4 2 N 1012,7 0,0
16.06.2018 04:00:00 16,5 14,9 0 0 8 5 SE 1013,2 0,0
16.06.2018 03:00:00 17,2 15,5 0 0 6 4 WNW 1013,6 0,0
16.06.2018 02:00:00 16,8 15,2 3 1 6 4 SSE 1013,7 -
16.06.2018 01:00:00 17,2 15,5 3 1 6 3 ESE 1013,5 0,0
16.06.2018 00:00:00 17,2 15,5 2 1 8 5 SSE 1013,5 0,0
15.06.2018 23:00:00 17,2 15,4 6 3 10 5 SSE 1013,4 0,0
15.06.2018 22:00:00 18,4 16,0 4 2 8 4 S 1012,5 0,0
15.06.2018 21:00:00 18,9 15,0 4 2 8 4 SSE 1012,5 0,0
15.06.2018 20:00:00 20,1 16,1 1 0 9 5 SSE 1012,4 -
15.06.2018 19:00:00 20,2 16,2 5 3 15 8 SE 1012,5 0,0
15.06.2018 18:00:00 22,3 15,2 10 5 14 8 S 1012,2 0,0
15.06.2018 17:00:00 22,1 15,5 9 5 13 7 S 1012,4 0,0
15.06.2018 16:00:00 22,1 15,0 6 4 14 7 SSE 1013,0 0,0
15.06.2018 15:00:00 21,9 14,8 7 4 15 8 SSE 1013,5 0,0
15.06.2018 14:00:00 22,9 13,7 6 4 11 6 SSE 1014,0 -
15.06.2018 13:00:00 23,3 13,8 7 4 14 8 SSE 1014,3 0,0
15.06.2018 12:00:00 23,7 13,0 5 3 18 10 SSE 1014,1 0,0
15.06.2018 11:00:00 23,4 11,8 10 5 16 9 SE 1013,7 0,0
15.06.2018 10:00:00 24,4 13,9 7 4 16 8 WSW 1013,1 0,0
15.06.2018 09:00:00 22,1 13,5 6 3 13 7 WNW 1013,0 0,0
15.06.2018 08:00:00 20,7 13,4 1 1 10 5 NW 1013,3 -
15.06.2018 07:00:00 18,8 16,2 7 4 13 7 WNW 1013,7 0,0
15.06.2018 06:00:00 18,2 16,4 0 0 22 12 E 1013,7 0,0
15.06.2018 05:00:00 18,5 16,5 9 5 21 11 ENE 1013,6 0,0
15.06.2018 04:00:00 19,1 16,9 6 3 22 12 ESE 1013,3 0,0
15.06.2018 03:00:00 20,2 15,0 9 5 20 11 E 1013,1 0,0
15.06.2018 02:00:00 19,1 16,5 7 4 14 7 ESE 1013,0 -
15.06.2018 01:00:00 19,8 15,9 4 2 17 9 E 1012,7 0,0
15.06.2018 00:00:00 19,8 15,7 9 5 16 9 E 1012,2 0,0
14.06.2018 23:00:00 20,7 14,6 10 6 14 7 E 1011,9 0,0
14.06.2018 22:00:00 21,2 14,4 1 0 9 5 ESE 1011,2 0,0
14.06.2018 21:00:00 21,2 13,9 6 3 10 5 ESE 1011,2 0,0
14.06.2018 20:00:00 22,7 15,3 4 2 10 6 SSE 1011,1 -
14.06.2018 19:00:00 21,9 14,5 6 3 11 6 ESE 1010,9 0,0
14.06.2018 18:00:00 22,6 13,9 5 3 18 10 SE 1011,1 0,0
14.06.2018 17:00:00 24,5 12,5 11 6 25 13 E 1011,3 0,0
14.06.2018 16:00:00 24,3 13,8 14 8 21 11 E 1011,7 0,0
14.06.2018 15:00:00 22,5 14,4 14 8 23 12 E 1012,2 0,0
14.06.2018 14:00:00 23,1 14,4 9 5 18 10 E 1012,6 -
14.06.2018 13:00:00 20,0 14,1 12 7 22 12 E 1012,9 0,0
14.06.2018 12:00:00 20,1 14,0 7 4 21 11 SE 1012,5 0,0
14.06.2018 11:00:00 22,4 13,7 10 5 22 12 E 1011,4 0,0
14.06.2018 10:00:00 23,7 10,0 4 2 23 12 E 1010,9 0,0
14.06.2018 09:00:00 25,6 11,0 9 5 25 13 W 1010,7 0,0
14.06.2018 08:00:00 24,3 9,9 10 5 27 14 W 1011,1 -
14.06.2018 07:00:00 24,4 9,9 11 6 26 14 W 1011,4 0,0
14.06.2018 06:00:00 24,9 10,4 9 5 22 12 W 1011,3 0,0
14.06.2018 05:00:00 25,3 10,4 10 5 26 14 WNW 1011,4 0,0
14.06.2018 04:00:00 25,8 11,2 14 8 29 16 NW 1011,5 0,0
14.06.2018 03:00:00 26,2 11,5 10 6 26 14 WNW 1012,0 0,0
14.06.2018 02:00:00 26,4 12,1 13 7 27 14 NW 1012,3 -
14.06.2018 01:00:00 27,0 12,6 11 6 29 15 NW 1012,6 0,0
14.06.2018 00:00:00 27,2 13,2 11 6 26 14 N 1012,5 0,0
13.06.2018 23:00:00 27,7 14,3 6 4 16 9 N 1012,4 0,0
13.06.2018 22:00:00 21,1 14,5 0 0 10 5 SW 1011,9 0,0
13.06.2018 21:00:00 20,5 13,7 6 4 19 10 E 1011,8 0,0
13.06.2018 20:00:00 21,4 13,6 10 5 22 12 E 1011,7 -
13.06.2018 19:00:00 23,2 13,7 16 8 25 14 E 1011,4 0,0
13.06.2018 18:00:00 23,5 13,4 17 9 21 12 E 1011,7 0,0
13.06.2018 17:00:00 23,3 13,8 12 7 18 10 E 1012,0 0,0
13.06.2018 16:00:00 21,6 13,3 11 6 16 9 ESE 1012,5 0,0
13.06.2018 15:00:00 25,1 14,3 8 4 20 11 E 1013,0 0,0
13.06.2018 14:00:00 22,6 12,3 10 6 22 12 E 1013,6 -
13.06.2018 13:00:00 21,6 11,0 11 6 20 11 E 1013,7 0,0
13.06.2018 12:00:00 23,1 11,2 8 5 27 14 ESE 1013,6 0,0
13.06.2018 11:00:00 27,0 12,3 16 9 30 16 WSW 1013,1 0,0
13.06.2018 10:00:00 25,8 12,6 11 6 29 16 WSW 1013,2 0,0
13.06.2018 09:00:00 24,2 11,9 9 5 25 14 WSW 1013,0 0,0
13.06.2018 08:00:00 22,5 11,0 11 6 27 14 W 1013,3 -
13.06.2018 07:00:00 22,3 10,5 16 9 34 18 W 1013,8 0,0
13.06.2018 06:00:00 22,9 10,7 14 8 35 19 W 1014,0 0,0
13.06.2018 05:00:00 23,2 10,6 17 9 34 18 WNW 1014,0 0,0
13.06.2018 04:00:00 23,4 10,8 16 9 40 21 WNW 1014,3 0,0
13.06.2018 03:00:00 23,8 10,8 17 9 34 19 WNW 1014,4 0,0
13.06.2018 02:00:00 24,1 11,1 14 7 30 16 W 1014,2 -
13.06.2018 01:00:00 24,0 11,0 11 6 22 12 W 1014,9 0,0
13.06.2018 00:00:00 24,8 11,4 10 5 22 12 WNW 1014,7 0,0
12.06.2018 23:00:00 25,1 11,3 13 7 35 19 WNW 1014,3 0,0
12.06.2018 22:00:00 27,4 8,8 10 5 25 14 NW 1013,1 0,0
12.06.2018 21:00:00 28,3 8,6 13 7 32 17 NW 1012,7 0,0
12.06.2018 20:00:00 29,1 8,2 11 6 29 16 NW 1012,1 -
12.06.2018 19:00:00 29,1 8,7 15 8 34 18 NNW 1012,2 0,0
12.06.2018 18:00:00 28,8 8,5 16 8 32 18 WNW 1012,3 0,0
12.06.2018 17:00:00 28,8 9,0 16 9 31 17 WNW 1012,6 0,0
12.06.2018 16:00:00 28,8 9,5 14 7 35 19 WNW 1012,7 0,0
12.06.2018 15:00:00 27,4 8,8 16 9 33 18 WNW 1013,4 0,0
12.06.2018 14:00:00 26,8 8,7 15 8 38 20 WNW 1013,9 -
12.06.2018 13:00:00 26,1 9,5 15 8 39 21 WNW 1014,0 0,0

tt = Température de l'air
td = dewpoint
ff = Vitesse du vent
fx = gusts
dd = Direction du vent
ppp = reduced air pressure
rr = Quantités de précipitations

stations d'obs. à proximité